sensor_id;sensor_type;location;lat;lon;timestamp;pressure;altitude;pressure_sealevel;temperature
20058;BMP180;10189;49.546;7.906;2024-01-11T00:01:32;99397.00;;;-3.80
20058;BMP180;10189;49.546;7.906;2024-01-11T00:03:59;99402.00;;;-3.80
20058;BMP180;10189;49.546;7.906;2024-01-11T00:06:25;99414.00;;;-3.80
20058;BMP180;10189;49.546;7.906;2024-01-11T00:08:51;99415.00;;;-3.80
20058;BMP180;10189;49.546;7.906;2024-01-11T00:11:17;99414.00;;;-3.90
20058;BMP180;10189;49.546;7.906;2024-01-11T00:13:43;99403.00;;;-3.90
20058;BMP180;10189;49.546;7.906;2024-01-11T00:16:09;99400.00;;;-3.90
20058;BMP180;10189;49.546;7.906;2024-01-11T00:18:35;99411.00;;;-3.80
20058;BMP180;10189;49.546;7.906;2024-01-11T00:21:02;99403.00;;;-3.90
20058;BMP180;10189;49.546;7.906;2024-01-11T00:23:28;99408.00;;;-4.00
20058;BMP180;10189;49.546;7.906;2024-01-11T00:25:54;99411.00;;;-4.00
20058;BMP180;10189;49.546;7.906;2024-01-11T00:28:20;99421.00;;;-4.00
20058;BMP180;10189;49.546;7.906;2024-01-11T00:30:46;99425.00;;;-4.00
20058;BMP180;10189;49.546;7.906;2024-01-11T00:33:12;99423.00;;;-4.00
20058;BMP180;10189;49.546;7.906;2024-01-11T00:35:39;99423.00;;;-3.90
20058;BMP180;10189;49.546;7.906;2024-01-11T00:38:05;99416.00;;;-3.80
20058;BMP180;10189;49.546;7.906;2024-01-11T00:40:31;99413.00;;;-3.80
20058;BMP180;10189;49.546;7.906;2024-01-11T00:42:57;99425.00;;;-3.80
20058;BMP180;10189;49.546;7.906;2024-01-11T00:45:23;99401.00;;;-3.80
20058;BMP180;10189;49.546;7.906;2024-01-11T00:47:50;99426.00;;;-3.80
20058;BMP180;10189;49.546;7.906;2024-01-11T00:50:16;99419.00;;;-3.80
20058;BMP180;10189;49.546;7.906;2024-01-11T00:52:42;99411.00;;;-3.80
20058;BMP180;10189;49.546;7.906;2024-01-11T00:55:08;99419.00;;;-3.80
20058;BMP180;10189;49.546;7.906;2024-01-11T00:57:35;99407.00;;;-3.80
20058;BMP180;10189;49.546;7.906;2024-01-11T01:00:01;99412.00;;;-3.80
20058;BMP180;10189;49.546;7.906;2024-01-11T01:02:27;99417.00;;;-3.80
20058;BMP180;10189;49.546;7.906;2024-01-11T01:04:53;99418.00;;;-3.80
20058;BMP180;10189;49.546;7.906;2024-01-11T01:07:19;99409.00;;;-3.60
20058;BMP180;10189;49.546;7.906;2024-01-11T01:09:45;99419.00;;;-3.80
20058;BMP180;10189;49.546;7.906;2024-01-11T01:12:12;99422.00;;;-3.80
20058;BMP180;10189;49.546;7.906;2024-01-11T01:14:38;99415.00;;;-3.90
20058;BMP180;10189;49.546;7.906;2024-01-11T01:17:04;99426.00;;;-3.90
20058;BMP180;10189;49.546;7.906;2024-01-11T01:19:31;99413.00;;;-3.80
20058;BMP180;10189;49.546;7.906;2024-01-11T01:21:57;99412.00;;;-3.90
20058;BMP180;10189;49.546;7.906;2024-01-11T01:24:23;99416.00;;;-4.00
20058;BMP180;10189;49.546;7.906;2024-01-11T01:26:49;99408.00;;;-4.00
20058;BMP180;10189;49.546;7.906;2024-01-11T01:29:15;99409.00;;;-3.80
20058;BMP180;10189;49.546;7.906;2024-01-11T01:31:41;99420.00;;;-3.80
20058;BMP180;10189;49.546;7.906;2024-01-11T01:34:07;99412.00;;;-3.60
20058;BMP180;10189;49.546;7.906;2024-01-11T01:36:34;99400.00;;;-3.40
20058;BMP180;10189;49.546;7.906;2024-01-11T01:39:00;99387.00;;;-3.10
20058;BMP180;10189;49.546;7.906;2024-01-11T01:41:27;99401.00;;;-2.90
20058;BMP180;10189;49.546;7.906;2024-01-11T01:43:53;99400.00;;;-2.40
20058;BMP180;10189;49.546;7.906;2024-01-11T01:46:23;99405.00;;;-2.10
20058;BMP180;10189;49.546;7.906;2024-01-11T01:48:51;99399.00;;;-2.10
20058;BMP180;10189;49.546;7.906;2024-01-11T01:51:17;99388.00;;;-1.90
20058;BMP180;10189;49.546;7.906;2024-01-11T01:53:44;99393.00;;;-1.80
20058;BMP180;10189;49.546;7.906;2024-01-11T01:56:11;99404.00;;;-1.70
20058;BMP180;10189;49.546;7.906;2024-01-11T01:58:38;99393.00;;;-1.60
20058;BMP180;10189;49.546;7.906;2024-01-11T02:01:04;99397.00;;;-1.60
20058;BMP180;10189;49.546;7.906;2024-01-11T02:03:34;99397.00;;;-1.50
20058;BMP180;10189;49.546;7.906;2024-01-11T02:06:04;99400.00;;;-1.60
20058;BMP180;10189;49.546;7.906;2024-01-11T02:08:32;99405.00;;;-1.70
20058;BMP180;10189;49.546;7.906;2024-01-11T02:11:00;99403.00;;;-1.80
20058;BMP180;10189;49.546;7.906;2024-01-11T02:13:28;99400.00;;;-2.00
20058;BMP180;10189;49.546;7.906;2024-01-11T02:15:54;99402.00;;;-1.80
20058;BMP180;10189;49.546;7.906;2024-01-11T02:18:20;99406.00;;;-1.70
20058;BMP180;10189;49.546;7.906;2024-01-11T02:20:47;99397.00;;;-1.60
20058;BMP180;10189;49.546;7.906;2024-01-11T02:23:19;99394.00;;;-1.60
20058;BMP180;10189;49.546;7.906;2024-01-11T02:25:47;99394.00;;;-1.50
20058;BMP180;10189;49.546;7.906;2024-01-11T02:28:14;99394.00;;;-1.60
20058;BMP180;10189;49.546;7.906;2024-01-11T02:30:40;99372.00;;;-1.50
20058;BMP180;10189;49.546;7.906;2024-01-11T02:33:06;99389.00;;;-1.50
20058;BMP180;10189;49.546;7.906;2024-01-11T02:35:34;99384.00;;;-1.60
20058;BMP180;10189;49.546;7.906;2024-01-11T02:38:01;99389.00;;;-1.80
20058;BMP180;10189;49.546;7.906;2024-01-11T02:40:29;99389.00;;;-2.10
20058;BMP180;10189;49.546;7.906;2024-01-11T02:42:55;99391.00;;;-2.40
20058;BMP180;10189;49.546;7.906;2024-01-11T02:45:21;99403.00;;;-2.70
20058;BMP180;10189;49.546;7.906;2024-01-11T02:47:47;99410.00;;;-2.80
20058;BMP180;10189;49.546;7.906;2024-01-11T02:50:14;99405.00;;;-2.90
20058;BMP180;10189;49.546;7.906;2024-01-11T02:52:40;99405.00;;;-3.10
20058;BMP180;10189;49.546;7.906;2024-01-11T02:55:06;99412.00;;;-3.10
20058;BMP180;10189;49.546;7.906;2024-01-11T02:57:32;99403.00;;;-3.10
20058;BMP180;10189;49.546;7.906;2024-01-11T02:59:59;99402.00;;;-3.20
20058;BMP180;10189;49.546;7.906;2024-01-11T03:02:25;99409.00;;;-3.20
20058;BMP180;10189;49.546;7.906;2024-01-11T03:04:51;99411.00;;;-3.20
20058;BMP180;10189;49.546;7.906;2024-01-11T03:07:17;99402.00;;;-2.90
20058;BMP180;10189;49.546;7.906;2024-01-11T03:09:44;99410.00;;;-3.00
20058;BMP180;10189;49.546;7.906;2024-01-11T03:12:11;99403.00;;;-2.70
20058;BMP180;10189;49.546;7.906;2024-01-11T03:14:37;99391.00;;;-2.60
20058;BMP180;10189;49.546;7.906;2024-01-11T03:17:03;99382.00;;;-2.30
20058;BMP180;10189;49.546;7.906;2024-01-11T03:19:30;99388.00;;;-2.20
20058;BMP180;10189;49.546;7.906;2024-01-11T03:21:56;99393.00;;;-2.20
20058;BMP180;10189;49.546;7.906;2024-01-11T03:24:23;99394.00;;;-2.20
20058;BMP180;10189;49.546;7.906;2024-01-11T03:26:49;99381.00;;;-2.10
20058;BMP180;10189;49.546;7.906;2024-01-11T03:29:15;99379.00;;;-2.10
20058;BMP180;10189;49.546;7.906;2024-01-11T03:31:41;99374.00;;;-1.80
20058;BMP180;10189;49.546;7.906;2024-01-11T03:34:10;99367.00;;;-1.60
20058;BMP180;10189;49.546;7.906;2024-01-11T03:36:36;99352.00;;;-1.40
20058;BMP180;10189;49.546;7.906;2024-01-11T03:39:03;99353.00;;;-1.40
20058;BMP180;10189;49.546;7.906;2024-01-11T03:41:29;99347.00;;;-1.30
20058;BMP180;10189;49.546;7.906;2024-01-11T03:43:55;99348.00;;;-1.40
20058;BMP180;10189;49.546;7.906;2024-01-11T03:46:21;99352.00;;;-1.30
20058;BMP180;10189;49.546;7.906;2024-01-11T03:48:47;99344.00;;;-1.30
20058;BMP180;10189;49.546;7.906;2024-01-11T03:51:14;99345.00;;;-1.30
20058;BMP180;10189;49.546;7.906;2024-01-11T03:53:40;99338.00;;;-1.30
20058;BMP180;10189;49.546;7.906;2024-01-11T03:56:05;99343.00;;;-1.30
20058;BMP180;10189;49.546;7.906;2024-01-11T03:58:31;99343.00;;;-1.30
20058;BMP180;10189;49.546;7.906;2024-01-11T04:00:58;99326.00;;;-1.30
20058;BMP180;10189;49.546;7.906;2024-01-11T04:03:24;99337.00;;;-1.40
20058;BMP180;10189;49.546;7.906;2024-01-11T04:05:50;99346.00;;;-1.40
20058;BMP180;10189;49.546;7.906;2024-01-11T04:08:16;99344.00;;;-1.50
20058;BMP180;10189;49.546;7.906;2024-01-11T04:10:41;99346.00;;;-1.50
20058;BMP180;10189;49.546;7.906;2024-01-11T04:13:07;99356.00;;;-1.60
20058;BMP180;10189;49.546;7.906;2024-01-11T04:15:33;99351.00;;;-1.70
20058;BMP180;10189;49.546;7.906;2024-01-11T04:17:59;99358.00;;;-1.90
20058;BMP180;10189;49.546;7.906;2024-01-11T04:20:25;99361.00;;;-1.90
20058;BMP180;10189;49.546;7.906;2024-01-11T04:22:51;99370.00;;;-2.00
20058;BMP180;10189;49.546;7.906;2024-01-11T04:25:17;99356.00;;;-2.10
20058;BMP180;10189;49.546;7.906;2024-01-11T04:27:43;99357.00;;;-2.10
20058;BMP180;10189;49.546;7.906;2024-01-11T04:30:09;99349.00;;;-2.30
20058;BMP180;10189;49.546;7.906;2024-01-11T04:32:35;99362.00;;;-2.20
20058;BMP180;10189;49.546;7.906;2024-01-11T04:35:00;99372.00;;;-2.40
20058;BMP180;10189;49.546;7.906;2024-01-11T04:37:26;99377.00;;;-2.60
20058;BMP180;10189;49.546;7.906;2024-01-11T04:39:52;99366.00;;;-2.60
20058;BMP180;10189;49.546;7.906;2024-01-11T04:42:18;99373.00;;;-2.70
20058;BMP180;10189;49.546;7.906;2024-01-11T04:44:44;99384.00;;;-2.70
20058;BMP180;10189;49.546;7.906;2024-01-11T04:47:09;99378.00;;;-2.70
20058;BMP180;10189;49.546;7.906;2024-01-11T04:49:35;99390.00;;;-2.60
20058;BMP180;10189;49.546;7.906;2024-01-11T04:52:01;99384.00;;;-2.60
20058;BMP180;10189;49.546;7.906;2024-01-11T04:54:27;99388.00;;;-2.50
20058;BMP180;10189;49.546;7.906;2024-01-11T04:56:53;99382.00;;;-2.50
20058;BMP180;10189;49.546;7.906;2024-01-11T04:59:18;99389.00;;;-2.40
20058;BMP180;10189;49.546;7.906;2024-01-11T05:01:46;99386.00;;;-2.10
20058;BMP180;10189;49.546;7.906;2024-01-11T05:04:12;99362.00;;;-2.00
20058;BMP180;10189;49.546;7.906;2024-01-11T05:06:37;99376.00;;;-1.70
20058;BMP180;10189;49.546;7.906;2024-01-11T05:09:03;99373.00;;;-1.70
20058;BMP180;10189;49.546;7.906;2024-01-11T05:11:30;99372.00;;;-1.60
20058;BMP180;10189;49.546;7.906;2024-01-11T05:13:56;99358.00;;;-1.40
20058;BMP180;10189;49.546;7.906;2024-01-11T05:16:25;99351.00;;;-1.40
20058;BMP180;10189;49.546;7.906;2024-01-11T05:18:53;99353.00;;;-1.30
20058;BMP180;10189;49.546;7.906;2024-01-11T05:21:19;99357.00;;;-1.40
20058;BMP180;10189;49.546;7.906;2024-01-11T05:23:45;99360.00;;;-1.40
20058;BMP180;10189;49.546;7.906;2024-01-11T05:26:14;99369.00;;;-1.50
20058;BMP180;10189;49.546;7.906;2024-01-11T05:28:40;99366.00;;;-1.60
20058;BMP180;10189;49.546;7.906;2024-01-11T05:31:12;99370.00;;;-1.60
20058;BMP180;10189;49.546;7.906;2024-01-11T05:33:39;99375.00;;;-1.60
20058;BMP180;10189;49.546;7.906;2024-01-11T05:36:05;99380.00;;;-1.70
20058;BMP180;10189;49.546;7.906;2024-01-11T05:38:32;99388.00;;;-1.90
20058;BMP180;10189;49.546;7.906;2024-01-11T05:40:58;99376.00;;;-1.90
20058;BMP180;10189;49.546;7.906;2024-01-11T05:43:24;99383.00;;;-1.70
20058;BMP180;10189;49.546;7.906;2024-01-11T05:45:50;99381.00;;;-1.60
20058;BMP180;10189;49.546;7.906;2024-01-11T05:48:17;99385.00;;;-1.70
20058;BMP180;10189;49.546;7.906;2024-01-11T05:50:46;99383.00;;;-1.70
20058;BMP180;10189;49.546;7.906;2024-01-11T05:53:12;99389.00;;;-1.70
20058;BMP180;10189;49.546;7.906;2024-01-11T05:55:39;99387.00;;;-1.60
20058;BMP180;10189;49.546;7.906;2024-01-11T05:58:05;99388.00;;;-1.50
20058;BMP180;10189;49.546;7.906;2024-01-11T06:00:31;99388.00;;;-1.50
20058;BMP180;10189;49.546;7.906;2024-01-11T06:02:57;99385.00;;;-1.50
20058;BMP180;10189;49.546;7.906;2024-01-11T06:05:23;99382.00;;;-1.50
20058;BMP180;10189;49.546;7.906;2024-01-11T06:07:49;99383.00;;;-1.70
20058;BMP180;10189;49.546;7.906;2024-01-11T06:10:15;99399.00;;;-1.60
20058;BMP180;10189;49.546;7.906;2024-01-11T06:12:42;99389.00;;;-1.60
20058;BMP180;10189;49.546;7.906;2024-01-11T06:15:09;99389.00;;;-1.60
20058;BMP180;10189;49.546;7.906;2024-01-11T06:17:35;99388.00;;;-1.80
20058;BMP180;10189;49.546;7.906;2024-01-11T06:20:02;99390.00;;;-1.70
20058;BMP180;10189;49.546;7.906;2024-01-11T06:22:29;99405.00;;;-1.70
20058;BMP180;10189;49.546;7.906;2024-01-11T06:24:54;99401.00;;;-1.80
20058;BMP180;10189;49.546;7.906;2024-01-11T06:27:21;99406.00;;;-1.70
20058;BMP180;10189;49.546;7.906;2024-01-11T06:29:46;99401.00;;;-1.80
20058;BMP180;10189;49.546;7.906;2024-01-11T06:32:12;99413.00;;;-1.80
20058;BMP180;10189;49.546;7.906;2024-01-11T06:34:38;99413.00;;;-1.80
20058;BMP180;10189;49.546;7.906;2024-01-11T06:37:07;99426.00;;;-1.80
20058;BMP180;10189;49.546;7.906;2024-01-11T06:39:33;99424.00;;;-1.70
20058;BMP180;10189;49.546;7.906;2024-01-11T06:41:59;99427.00;;;-1.60
20058;BMP180;10189;49.546;7.906;2024-01-11T06:44:24;99428.00;;;-1.70
20058;BMP180;10189;49.546;7.906;2024-01-11T06:46:50;99438.00;;;-1.70
20058;BMP180;10189;49.546;7.906;2024-01-11T06:49:16;99443.00;;;-1.70
20058;BMP180;10189;49.546;7.906;2024-01-11T06:51:42;99430.00;;;-1.70
20058;BMP180;10189;49.546;7.906;2024-01-11T06:54:08;99446.00;;;-1.60
20058;BMP180;10189;49.546;7.906;2024-01-11T06:56:34;99452.00;;;-1.50
20058;BMP180;10189;49.546;7.906;2024-01-11T06:58:59;99458.00;;;-1.50
20058;BMP180;10189;49.546;7.906;2024-01-11T07:01:25;99454.00;;;-1.50
20058;BMP180;10189;49.546;7.906;2024-01-11T07:03:51;99456.00;;;-1.40
20058;BMP180;10189;49.546;7.906;2024-01-11T07:06:17;99463.00;;;-1.30
20058;BMP180;10189;49.546;7.906;2024-01-11T07:08:43;99465.00;;;-1.30
20058;BMP180;10189;49.546;7.906;2024-01-11T07:11:10;99466.00;;;-1.40
20058;BMP180;10189;49.546;7.906;2024-01-11T07:13:36;99473.00;;;-1.40
20058;BMP180;10189;49.546;7.906;2024-01-11T07:16:05;99467.00;;;-1.40
20058;BMP180;10189;49.546;7.906;2024-01-11T07:18:31;99477.00;;;-1.40
20058;BMP180;10189;49.546;7.906;2024-01-11T07:20:59;99478.00;;;-1.40
20058;BMP180;10189;49.546;7.906;2024-01-11T07:23:26;99488.00;;;-1.50
20058;BMP180;10189;49.546;7.906;2024-01-11T07:25:52;99485.00;;;-1.50
20058;BMP180;10189;49.546;7.906;2024-01-11T07:28:18;99485.00;;;-1.60
20058;BMP180;10189;49.546;7.906;2024-01-11T07:30:45;99481.00;;;-1.50
20058;BMP180;10189;49.546;7.906;2024-01-11T07:33:12;99494.00;;;-1.50
20058;BMP180;10189;49.546;7.906;2024-01-11T07:35:37;99476.00;;;-1.50
20058;BMP180;10189;49.546;7.906;2024-01-11T07:38:04;99484.00;;;-1.50
20058;BMP180;10189;49.546;7.906;2024-01-11T07:40:30;99484.00;;;-1.50
20058;BMP180;10189;49.546;7.906;2024-01-11T07:42:56;99494.00;;;-1.60
20058;BMP180;10189;49.546;7.906;2024-01-11T07:45:22;99500.00;;;-1.60
20058;BMP180;10189;49.546;7.906;2024-01-11T07:47:47;99493.00;;;-1.60
20058;BMP180;10189;49.546;7.906;2024-01-11T07:50:14;99483.00;;;-1.50
20058;BMP180;10189;49.546;7.906;2024-01-11T07:52:40;99492.00;;;-1.60
20058;BMP180;10189;49.546;7.906;2024-01-11T07:55:10;99507.00;;;-1.50
20058;BMP180;10189;49.546;7.906;2024-01-11T07:57:38;99486.00;;;-1.60
20058;BMP180;10189;49.546;7.906;2024-01-11T08:00:05;99500.00;;;-1.70
20058;BMP180;10189;49.546;7.906;2024-01-11T08:02:40;99496.00;;;-1.60
20058;BMP180;10189;49.546;7.906;2024-01-11T08:05:06;99496.00;;;-1.50
20058;BMP180;10189;49.546;7.906;2024-01-11T08:07:33;99499.00;;;-1.40
20058;BMP180;10189;49.546;7.906;2024-01-11T08:09:59;99499.00;;;-1.40
20058;BMP180;10189;49.546;7.906;2024-01-11T08:12:24;99501.00;;;-1.40
20058;BMP180;10189;49.546;7.906;2024-01-11T08:14:50;99500.00;;;-1.30
20058;BMP180;10189;49.546;7.906;2024-01-11T08:17:16;99496.00;;;-1.30
20058;BMP180;10189;49.546;7.906;2024-01-11T08:19:42;99499.00;;;-1.20
20058;BMP180;10189;49.546;7.906;2024-01-11T08:22:10;99489.00;;;-1.20
20058;BMP180;10189;49.546;7.906;2024-01-11T08:24:36;99500.00;;;-1.10
20058;BMP180;10189;49.546;7.906;2024-01-11T08:27:02;99496.00;;;-1.00
20058;BMP180;10189;49.546;7.906;2024-01-11T08:29:28;99500.00;;;-1.00
20058;BMP180;10189;49.546;7.906;2024-01-11T08:31:54;99501.00;;;-1.00
20058;BMP180;10189;49.546;7.906;2024-01-11T08:34:22;99508.00;;;-1.00
20058;BMP180;10189;49.546;7.906;2024-01-11T08:36:49;99507.00;;;-1.00
20058;BMP180;10189;49.546;7.906;2024-01-11T08:39:15;99504.00;;;-0.80
20058;BMP180;10189;49.546;7.906;2024-01-11T08:41:41;99497.00;;;-0.90
20058;BMP180;10189;49.546;7.906;2024-01-11T08:44:07;99507.00;;;-0.80
20058;BMP180;10189;49.546;7.906;2024-01-11T08:46:34;99510.00;;;-0.70
20058;BMP180;10189;49.546;7.906;2024-01-11T08:49:01;99509.00;;;-0.70
20058;BMP180;10189;49.546;7.906;2024-01-11T08:51:29;99489.00;;;-0.60
20058;BMP180;10189;49.546;7.906;2024-01-11T08:53:55;99493.00;;;-0.60
20058;BMP180;10189;49.546;7.906;2024-01-11T08:56:22;99485.00;;;-0.40
20058;BMP180;10189;49.546;7.906;2024-01-11T08:58:48;99492.00;;;-0.60
20058;BMP180;10189;49.546;7.906;2024-01-11T09:01:15;99494.00;;;-0.50
20058;BMP180;10189;49.546;7.906;2024-01-11T09:03:41;99484.00;;;-0.40
20058;BMP180;10189;49.546;7.906;2024-01-11T09:06:07;99481.00;;;-0.30
20058;BMP180;10189;49.546;7.906;2024-01-11T09:08:33;99483.00;;;-0.30
20058;BMP180;10189;49.546;7.906;2024-01-11T09:11:00;99470.00;;;-0.20
20058;BMP180;10189;49.546;7.906;2024-01-11T09:13:29;99482.00;;;-0.30
20058;BMP180;10189;49.546;7.906;2024-01-11T09:15:55;99477.00;;;-0.20
20058;BMP180;10189;49.546;7.906;2024-01-11T09:18:24;99488.00;;;-0.30
20058;BMP180;10189;49.546;7.906;2024-01-11T09:20:50;99478.00;;;-0.30
20058;BMP180;10189;49.546;7.906;2024-01-11T09:23:16;99485.00;;;-0.20
20058;BMP180;10189;49.546;7.906;2024-01-11T09:25:43;99480.00;;;-0.10
20058;BMP180;10189;49.546;7.906;2024-01-11T09:28:09;99479.00;;;0.00
20058;BMP180;10189;49.546;7.906;2024-01-11T09:30:35;99473.00;;;0.10
20058;BMP180;10189;49.546;7.906;2024-01-11T09:33:01;99488.00;;;0.00
20058;BMP180;10189;49.546;7.906;2024-01-11T09:35:27;99479.00;;;0.20
20058;BMP180;10189;49.546;7.906;2024-01-11T09:37:53;99486.00;;;0.10
20058;BMP180;10189;49.546;7.906;2024-01-11T09:40:19;99496.00;;;0.10
20058;BMP180;10189;49.546;7.906;2024-01-11T09:42:45;99477.00;;;0.20
20058;BMP180;10189;49.546;7.906;2024-01-11T09:45:15;99480.00;;;0.30
20058;BMP180;10189;49.546;7.906;2024-01-11T09:47:44;99487.00;;;0.30
20058;BMP180;10189;49.546;7.906;2024-01-11T09:50:13;99508.00;;;0.30
20058;BMP180;10189;49.546;7.906;2024-01-11T09:52:50;99499.00;;;0.30
20058;BMP180;10189;49.546;7.906;2024-01-11T09:55:18;99501.00;;;0.40
20058;BMP180;10189;49.546;7.906;2024-01-11T09:57:47;99502.00;;;0.40
20058;BMP180;10189;49.546;7.906;2024-01-11T10:00:17;99506.00;;;0.40
20058;BMP180;10189;49.546;7.906;2024-01-11T10:02:46;99505.00;;;0.30
20058;BMP180;10189;49.546;7.906;2024-01-11T10:05:12;99517.00;;;0.40
20058;BMP180;10189;49.546;7.906;2024-01-11T10:07:40;99514.00;;;0.60
20058;BMP180;10189;49.546;7.906;2024-01-11T10:10:07;99513.00;;;0.60
20058;BMP180;10189;49.546;7.906;2024-01-11T10:12:37;99501.00;;;0.60
20058;BMP180;10189;49.546;7.906;2024-01-11T10:15:08;99497.00;;;0.70
20058;BMP180;10189;49.546;7.906;2024-01-11T10:17:44;99497.00;;;0.90
20058;BMP180;10189;49.546;7.906;2024-01-11T10:20:13;99495.00;;;1.10
20058;BMP180;10189;49.546;7.906;2024-01-11T10:22:40;99487.00;;;1.20
20058;BMP180;10189;49.546;7.906;2024-01-11T10:25:14;99473.00;;;1.40
20058;BMP180;10189;49.546;7.906;2024-01-11T10:27:42;99468.00;;;1.60
20058;BMP180;10189;49.546;7.906;2024-01-11T10:30:10;99463.00;;;1.70
20058;BMP180;10189;49.546;7.906;2024-01-11T10:32:36;99457.00;;;1.70
20058;BMP180;10189;49.546;7.906;2024-01-11T10:35:02;99463.00;;;1.70
20058;BMP180;10189;49.546;7.906;2024-01-11T10:37:32;99458.00;;;1.70
20058;BMP180;10189;49.546;7.906;2024-01-11T10:40:05;99457.00;;;1.60
20058;BMP180;10189;49.546;7.906;2024-01-11T10:42:49;99456.00;;;1.70
20058;BMP180;10189;49.546;7.906;2024-01-11T10:45:19;99445.00;;;1.80
20058;BMP180;10189;49.546;7.906;2024-01-11T10:48:00;99445.00;;;1.90
20058;BMP180;10189;49.546;7.906;2024-01-11T10:50:34;99447.00;;;2.00
20058;BMP180;10189;49.546;7.906;2024-01-11T10:53:42;99448.00;;;2.10
20058;BMP180;10189;49.546;7.906;2024-01-11T10:56:10;99458.00;;;2.10
20058;BMP180;10189;49.546;7.906;2024-01-11T10:58:44;99456.00;;;2.20
20058;BMP180;10189;49.546;7.906;2024-01-11T11:01:12;99446.00;;;2.20
20058;BMP180;10189;49.546;7.906;2024-01-11T11:03:39;99459.00;;;2.20
20058;BMP180;10189;49.546;7.906;2024-01-11T11:06:09;99457.00;;;2.20
20058;BMP180;10189;49.546;7.906;2024-01-11T11:08:37;99458.00;;;2.20
20058;BMP180;10189;49.546;7.906;2024-01-11T11:11:04;99443.00;;;2.30
20058;BMP180;10189;49.546;7.906;2024-01-11T11:13:34;99427.00;;;2.40
20058;BMP180;10189;49.546;7.906;2024-01-11T11:16:03;99425.00;;;2.50
20058;BMP180;10189;49.546;7.906;2024-01-11T11:18:33;99434.00;;;2.40
20058;BMP180;10189;49.546;7.906;2024-01-11T11:21:08;99423.00;;;2.40
20058;BMP180;10189;49.546;7.906;2024-01-11T11:23:34;99430.00;;;2.50
20058;BMP180;10189;49.546;7.906;2024-01-11T11:26:00;99427.00;;;2.50
20058;BMP180;10189;49.546;7.906;2024-01-11T11:28:26;99432.00;;;2.60
20058;BMP180;10189;49.546;7.906;2024-01-11T11:30:53;99439.00;;;2.60
20058;BMP180;10189;49.546;7.906;2024-01-11T11:33:24;99438.00;;;2.60
20058;BMP180;10189;49.546;7.906;2024-01-11T11:35:54;99429.00;;;2.70
20058;BMP180;10189;49.546;7.906;2024-01-11T11:38:28;99416.00;;;2.60
20058;BMP180;10189;49.546;7.906;2024-01-11T11:40:59;99391.00;;;2.70
20058;BMP180;10189;49.546;7.906;2024-01-11T11:43:29;99393.00;;;2.80
20058;BMP180;10189;49.546;7.906;2024-01-11T11:45:57;99416.00;;;2.70
20058;BMP180;10189;49.546;7.906;2024-01-11T11:53:34;99400.00;;;2.80
20058;BMP180;10189;49.546;7.906;2024-01-11T11:56:01;99406.00;;;2.80
20058;BMP180;10189;49.546;7.906;2024-01-11T11:58:29;99399.00;;;2.80
20058;BMP180;10189;49.546;7.906;2024-01-11T12:01:00;99399.00;;;2.80
20058;BMP180;10189;49.546;7.906;2024-01-11T12:03:32;99384.00;;;2.80
20058;BMP180;10189;49.546;7.906;2024-01-11T12:05:59;99397.00;;;2.90
20058;BMP180;10189;49.546;7.906;2024-01-11T12:08:26;99398.00;;;2.90
20058;BMP180;10189;49.546;7.906;2024-01-11T12:10:53;99392.00;;;2.90
20058;BMP180;10189;49.546;7.906;2024-01-11T12:13:19;99386.00;;;3.00
20058;BMP180;10189;49.546;7.906;2024-01-11T12:15:46;99392.00;;;3.00
20058;BMP180;10189;49.546;7.906;2024-01-11T12:18:12;99391.00;;;3.10
20058;BMP180;10189;49.546;7.906;2024-01-11T12:20:38;99394.00;;;3.10
20058;BMP180;10189;49.546;7.906;2024-01-11T12:23:04;99393.00;;;3.00
20058;BMP180;10189;49.546;7.906;2024-01-11T12:25:31;99389.00;;;3.00
20058;BMP180;10189;49.546;7.906;2024-01-11T12:27:57;99378.00;;;3.10
20058;BMP180;10189;49.546;7.906;2024-01-11T12:30:27;99372.00;;;3.20
20058;BMP180;10189;49.546;7.906;2024-01-11T12:32:54;99369.00;;;3.20
20058;BMP180;10189;49.546;7.906;2024-01-11T12:35:20;99364.00;;;3.20
20058;BMP180;10189;49.546;7.906;2024-01-11T12:37:59;99375.00;;;3.20
20058;BMP180;10189;49.546;7.906;2024-01-11T12:40:27;99383.00;;;3.20
20058;BMP180;10189;49.546;7.906;2024-01-11T12:42:53;99371.00;;;3.30
20058;BMP180;10189;49.546;7.906;2024-01-11T12:45:20;99379.00;;;3.20
20058;BMP180;10189;49.546;7.906;2024-01-11T12:47:46;99386.00;;;3.30
20058;BMP180;10189;49.546;7.906;2024-01-11T12:50:12;99381.00;;;3.20
20058;BMP180;10189;49.546;7.906;2024-01-11T12:52:38;99379.00;;;3.20
20058;BMP180;10189;49.546;7.906;2024-01-11T12:55:17;99381.00;;;3.30
20058;BMP180;10189;49.546;7.906;2024-01-11T12:57:44;99366.00;;;3.30
20058;BMP180;10189;49.546;7.906;2024-01-11T13:00:12;99359.00;;;3.40
20058;BMP180;10189;49.546;7.906;2024-01-11T13:02:39;99359.00;;;3.40
20058;BMP180;10189;49.546;7.906;2024-01-11T13:05:06;99365.00;;;3.40
20058;BMP180;10189;49.546;7.906;2024-01-11T13:07:37;99356.00;;;3.50
20058;BMP180;10189;49.546;7.906;2024-01-11T13:10:04;99361.00;;;3.40
20058;BMP180;10189;49.546;7.906;2024-01-11T13:12:31;99351.00;;;3.50
20058;BMP180;10189;49.546;7.906;2024-01-11T13:14:57;99361.00;;;3.50
20058;BMP180;10189;49.546;7.906;2024-01-11T13:17:23;99363.00;;;3.50
20058;BMP180;10189;49.546;7.906;2024-01-11T13:19:48;99362.00;;;3.50
20058;BMP180;10189;49.546;7.906;2024-01-11T13:22:15;99363.00;;;3.60
20058;BMP180;10189;49.546;7.906;2024-01-11T13:24:41;99370.00;;;3.70
20058;BMP180;10189;49.546;7.906;2024-01-11T13:27:07;99360.00;;;3.70
20058;BMP180;10189;49.546;7.906;2024-01-11T13:29:33;99371.00;;;3.70
20058;BMP180;10189;49.546;7.906;2024-01-11T13:31:58;99376.00;;;3.60
20058;BMP180;10189;49.546;7.906;2024-01-11T13:34:24;99376.00;;;3.60
20058;BMP180;10189;49.546;7.906;2024-01-11T13:36:50;99364.00;;;3.70
20058;BMP180;10189;49.546;7.906;2024-01-11T13:39:16;99385.00;;;3.70
20058;BMP180;10189;49.546;7.906;2024-01-11T13:41:44;99371.00;;;3.80
20058;BMP180;10189;49.546;7.906;2024-01-11T13:44:10;99373.00;;;3.80
20058;BMP180;10189;49.546;7.906;2024-01-11T13:46:37;99394.00;;;3.70
20058;BMP180;10189;49.546;7.906;2024-01-11T13:49:03;99387.00;;;3.70
20058;BMP180;10189;49.546;7.906;2024-01-11T13:51:30;99398.00;;;3.70
20058;BMP180;10189;49.546;7.906;2024-01-11T13:53:58;99392.00;;;3.80
20058;BMP180;10189;49.546;7.906;2024-01-11T13:56:27;99396.00;;;3.70
20058;BMP180;10189;49.546;7.906;2024-01-11T13:58:53;99405.00;;;3.70
20058;BMP180;10189;49.546;7.906;2024-01-11T14:01:19;99407.00;;;3.70
20058;BMP180;10189;49.546;7.906;2024-01-11T14:03:45;99397.00;;;3.80
20058;BMP180;10189;49.546;7.906;2024-01-11T14:06:11;99394.00;;;3.70
20058;BMP180;10189;49.546;7.906;2024-01-11T14:08:37;99391.00;;;3.70
20058;BMP180;10189;49.546;7.906;2024-01-11T14:11:04;99402.00;;;3.70
20058;BMP180;10189;49.546;7.906;2024-01-11T14:13:30;99386.00;;;3.70
20058;BMP180;10189;49.546;7.906;2024-01-11T14:15:56;99392.00;;;3.60
20058;BMP180;10189;49.546;7.906;2024-01-11T14:18:25;99384.00;;;3.50